sensor_id;sensor_type;location;lat;lon;timestamp;P1;durP1;ratioP1;P2;durP2;ratioP2
7693;SDS011;3889;48.162;11.510;2022-08-07T00:00:23;20.13;;;18.02;;
7693;SDS011;3889;48.162;11.510;2022-08-07T00:02:51;19.23;;;17.30;;
7693;SDS011;3889;48.162;11.510;2022-08-07T00:05:22;18.83;;;16.92;;
7693;SDS011;3889;48.162;11.510;2022-08-07T00:07:52;17.83;;;16.10;;
7693;SDS011;3889;48.162;11.510;2022-08-07T00:10:25;17.20;;;15.50;;
7693;SDS011;3889;48.162;11.510;2022-08-07T00:12:56;15.18;;;13.80;;
7693;SDS011;3889;48.162;11.510;2022-08-07T00:15:47;15.23;;;13.77;;
7693;SDS011;3889;48.162;11.510;2022-08-07T00:18:17;14.77;;;13.38;;
7693;SDS011;3889;48.162;11.510;2022-08-07T00:20:51;14.18;;;12.90;;
7693;SDS011;3889;48.162;11.510;2022-08-07T00:23:22;14.05;;;12.75;;
7693;SDS011;3889;48.162;11.510;2022-08-07T00:25:53;14.10;;;12.70;;
7693;SDS011;3889;48.162;11.510;2022-08-07T00:28:27;13.23;;;11.93;;
7693;SDS011;3889;48.162;11.510;2022-08-07T00:30:59;13.15;;;11.38;;
7693;SDS011;3889;48.162;11.510;2022-08-07T00:33:31;13.45;;;12.05;;
7693;SDS011;3889;48.162;11.510;2022-08-07T00:36:02;12.73;;;11.48;;
7693;SDS011;3889;48.162;11.510;2022-08-07T00:38:31;11.80;;;10.52;;
7693;SDS011;3889;48.162;11.510;2022-08-07T00:41:02;11.75;;;10.55;;
7693;SDS011;3889;48.162;11.510;2022-08-07T00:43:35;12.02;;;10.82;;
7693;SDS011;3889;48.162;11.510;2022-08-07T00:46:23;11.18;;;10.07;;
7693;SDS011;3889;48.162;11.510;2022-08-07T00:48:51;10.55;;;9.45;;
7693;SDS011;3889;48.162;11.510;2022-08-07T00:51:20;9.48;;;8.48;;
7693;SDS011;3889;48.162;11.510;2022-08-07T00:53:53;10.73;;;9.00;;
7693;SDS011;3889;48.162;11.510;2022-08-07T00:56:21;9.13;;;8.23;;
7693;SDS011;3889;48.162;11.510;2022-08-07T00:58:55;8.30;;;7.50;;
7693;SDS011;3889;48.162;11.510;2022-08-07T01:01:24;8.73;;;7.97;;
7693;SDS011;3889;48.162;11.510;2022-08-07T01:03:52;8.45;;;7.53;;
7693;SDS011;3889;48.162;11.510;2022-08-07T01:06:26;7.75;;;6.78;;
7693;SDS011;3889;48.162;11.510;2022-08-07T01:08:56;9.75;;;7.97;;
7693;SDS011;3889;48.162;11.510;2022-08-07T01:11:26;8.60;;;7.55;;
7693;SDS011;3889;48.162;11.510;2022-08-07T01:14:14;8.18;;;7.35;;
7693;SDS011;3889;48.162;11.510;2022-08-07T01:16:46;7.65;;;6.95;;
7693;SDS011;3889;48.162;11.510;2022-08-07T01:19:16;7.70;;;6.88;;
7693;SDS011;3889;48.162;11.510;2022-08-07T01:21:47;6.90;;;6.30;;
7693;SDS011;3889;48.162;11.510;2022-08-07T01:24:18;6.60;;;6.00;;
7693;SDS011;3889;48.162;11.510;2022-08-07T01:26:48;6.70;;;6.10;;
7693;SDS011;3889;48.162;11.510;2022-08-07T01:29:19;6.72;;;6.13;;
7693;SDS011;3889;48.162;11.510;2022-08-07T01:31:53;7.70;;;6.65;;
7693;SDS011;3889;48.162;11.510;2022-08-07T01:34:24;7.60;;;6.80;;
7693;SDS011;3889;48.162;11.510;2022-08-07T01:36:57;7.88;;;7.18;;
7693;SDS011;3889;48.162;11.510;2022-08-07T01:39:26;8.30;;;7.43;;
7693;SDS011;3889;48.162;11.510;2022-08-07T01:42:06;8.30;;;7.40;;
7693;SDS011;3889;48.162;11.510;2022-08-07T01:44:54;7.82;;;7.03;;
7693;SDS011;3889;48.162;11.510;2022-08-07T01:47:23;7.90;;;7.13;;
7693;SDS011;3889;48.162;11.510;2022-08-07T01:50:11;8.43;;;7.53;;
7693;SDS011;3889;48.162;11.510;2022-08-07T01:52:41;7.93;;;7.23;;
7693;SDS011;3889;48.162;11.510;2022-08-07T01:55:19;7.90;;;7.18;;
7693;SDS011;3889;48.162;11.510;2022-08-07T01:57:50;7.80;;;7.00;;
7693;SDS011;3889;48.162;11.510;2022-08-07T02:00:41;7.55;;;6.85;;
7693;SDS011;3889;48.162;11.510;2022-08-07T02:03:15;7.82;;;7.10;;
7693;SDS011;3889;48.162;11.510;2022-08-07T02:06:06;7.95;;;7.25;;
7693;SDS011;3889;48.162;11.510;2022-08-07T02:08:59;7.53;;;6.73;;
7693;SDS011;3889;48.162;11.510;2022-08-07T02:11:31;7.20;;;6.50;;
7693;SDS011;3889;48.162;11.510;2022-08-07T02:14:21;7.15;;;6.40;;
7693;SDS011;3889;48.162;11.510;2022-08-07T02:17:06;6.28;;;5.68;;
7693;SDS011;3889;48.162;11.510;2022-08-07T02:19:36;5.97;;;5.47;;
7693;SDS011;3889;48.162;11.510;2022-08-07T02:22:27;5.90;;;5.30;;
7693;SDS011;3889;48.162;11.510;2022-08-07T02:24:58;6.30;;;5.28;;
7693;SDS011;3889;48.162;11.510;2022-08-07T02:27:33;5.90;;;5.40;;
7693;SDS011;3889;48.162;11.510;2022-08-07T02:30:06;5.80;;;5.30;;
7693;SDS011;3889;48.162;11.510;2022-08-07T02:32:39;6.00;;;4.95;;
7693;SDS011;3889;48.162;11.510;2022-08-07T02:35:27;7.05;;;5.68;;
7693;SDS011;3889;48.162;11.510;2022-08-07T02:38:15;6.90;;;6.20;;
7693;SDS011;3889;48.162;11.510;2022-08-07T02:40:55;6.13;;;5.63;;
7693;SDS011;3889;48.162;11.510;2022-08-07T02:43:25;7.40;;;6.70;;
7693;SDS011;3889;48.162;11.510;2022-08-07T02:45:56;8.68;;;7.78;;
7693;SDS011;3889;48.162;11.510;2022-08-07T02:48:28;8.68;;;7.80;;
7693;SDS011;3889;48.162;11.510;2022-08-07T02:50:56;9.18;;;8.27;;
7693;SDS011;3889;48.162;11.510;2022-08-07T02:53:30;9.23;;;8.30;;
7693;SDS011;3889;48.162;11.510;2022-08-07T02:56:06;10.45;;;8.98;;
7693;SDS011;3889;48.162;11.510;2022-08-07T02:58:46;9.00;;;8.20;;
7693;SDS011;3889;48.162;11.510;2022-08-07T03:01:20;9.88;;;8.77;;
7693;SDS011;3889;48.162;11.510;2022-08-07T03:04:05;8.55;;;7.75;;
7693;SDS011;3889;48.162;11.510;2022-08-07T03:06:38;9.02;;;8.18;;
7693;SDS011;3889;48.162;11.510;2022-08-07T03:09:07;9.20;;;8.40;;
7693;SDS011;3889;48.162;11.510;2022-08-07T03:11:38;9.40;;;8.60;;
7693;SDS011;3889;48.162;11.510;2022-08-07T03:14:23;8.77;;;7.88;;
7693;SDS011;3889;48.162;11.510;2022-08-07T03:16:53;8.90;;;8.10;;
7693;SDS011;3889;48.162;11.510;2022-08-07T03:19:23;8.97;;;7.87;;
7693;SDS011;3889;48.162;11.510;2022-08-07T03:21:54;9.73;;;8.45;;
7693;SDS011;3889;48.162;11.510;2022-08-07T03:24:23;8.75;;;7.95;;
7693;SDS011;3889;48.162;11.510;2022-08-07T03:26:54;9.13;;;8.10;;
7693;SDS011;3889;48.162;11.510;2022-08-07T03:29:25;9.55;;;8.55;;
7693;SDS011;3889;48.162;11.510;2022-08-07T03:32:02;9.35;;;7.65;;
7693;SDS011;3889;48.162;11.510;2022-08-07T03:34:38;9.30;;;8.35;;
7693;SDS011;3889;48.162;11.510;2022-08-07T03:37:26;9.10;;;8.20;;
7693;SDS011;3889;48.162;11.510;2022-08-07T03:39:58;9.40;;;8.40;;
7693;SDS011;3889;48.162;11.510;2022-08-07T03:42:43;8.90;;;8.15;;
7693;SDS011;3889;48.162;11.510;2022-08-07T03:45:14;9.48;;;8.50;;
7693;SDS011;3889;48.162;11.510;2022-08-07T03:47:56;8.60;;;7.78;;
7693;SDS011;3889;48.162;11.510;2022-08-07T03:50:25;9.05;;;8.15;;
7693;SDS011;3889;48.162;11.510;2022-08-07T03:52:55;8.95;;;8.15;;
7693;SDS011;3889;48.162;11.510;2022-08-07T03:55:25;8.57;;;7.72;;
7693;SDS011;3889;48.162;11.510;2022-08-07T03:58:16;10.02;;;9.02;;
7693;SDS011;3889;48.162;11.510;2022-08-07T04:01:07;9.90;;;9.00;;
7693;SDS011;3889;48.162;11.510;2022-08-07T04:03:39;9.20;;;8.40;;
7693;SDS011;3889;48.162;11.510;2022-08-07T04:06:20;9.48;;;8.45;;
7693;SDS011;3889;48.162;11.510;2022-08-07T04:09:03;9.70;;;8.90;;
7693;SDS011;3889;48.162;11.510;2022-08-07T04:11:41;9.00;;;8.30;;
7693;SDS011;3889;48.162;11.510;2022-08-07T04:14:32;10.13;;;9.13;;
7693;SDS011;3889;48.162;11.510;2022-08-07T04:17:03;9.07;;;8.38;;
7693;SDS011;3889;48.162;11.510;2022-08-07T04:19:46;9.25;;;8.45;;
7693;SDS011;3889;48.162;11.510;2022-08-07T04:22:20;9.75;;;8.75;;
7693;SDS011;3889;48.162;11.510;2022-08-07T04:24:54;8.82;;;8.02;;
7693;SDS011;3889;48.162;11.510;2022-08-07T04:27:23;9.13;;;8.25;;
7693;SDS011;3889;48.162;11.510;2022-08-07T04:29:53;9.07;;;8.18;;
7693;SDS011;3889;48.162;11.510;2022-08-07T04:32:27;9.05;;;8.25;;
7693;SDS011;3889;48.162;11.510;2022-08-07T04:35:00;9.05;;;8.25;;
7693;SDS011;3889;48.162;11.510;2022-08-07T04:37:31;8.68;;;7.90;;
7693;SDS011;3889;48.162;11.510;2022-08-07T04:40:20;8.65;;;7.78;;
7693;SDS011;3889;48.162;11.510;2022-08-07T04:42:56;8.30;;;7.57;;
7693;SDS011;3889;48.162;11.510;2022-08-07T04:45:32;8.95;;;8.05;;
7693;SDS011;3889;48.162;11.510;2022-08-07T04:48:27;8.57;;;7.70;;
7693;SDS011;3889;48.162;11.510;2022-08-07T04:51:03;8.63;;;7.75;;
7693;SDS011;3889;48.162;11.510;2022-08-07T04:53:37;8.32;;;7.65;;
7693;SDS011;3889;48.162;11.510;2022-08-07T04:56:34;7.90;;;7.20;;
7693;SDS011;3889;48.162;11.510;2022-08-07T04:59:27;7.90;;;7.20;;
7693;SDS011;3889;48.162;11.510;2022-08-07T05:02:21;8.13;;;7.43;;
7693;SDS011;3889;48.162;11.510;2022-08-07T05:04:55;7.25;;;6.55;;
7693;SDS011;3889;48.162;11.510;2022-08-07T05:07:29;9.75;;;6.65;;
7693;SDS011;3889;48.162;11.510;2022-08-07T05:10:15;6.85;;;6.30;;
7693;SDS011;3889;48.162;11.510;2022-08-07T05:12:47;6.70;;;6.00;;
7693;SDS011;3889;48.162;11.510;2022-08-07T05:15:35;6.78;;;6.03;;
7693;SDS011;3889;48.162;11.510;2022-08-07T05:18:08;6.90;;;6.30;;
7693;SDS011;3889;48.162;11.510;2022-08-07T05:20:44;6.90;;;5.50;;
7693;SDS011;3889;48.162;11.510;2022-08-07T05:23:16;6.60;;;5.80;;
7693;SDS011;3889;48.162;11.510;2022-08-07T05:25:56;6.30;;;5.40;;
7693;SDS011;3889;48.162;11.510;2022-08-07T05:28:43;5.35;;;4.85;;
7693;SDS011;3889;48.162;11.510;2022-08-07T05:31:15;5.60;;;4.90;;
7693;SDS011;3889;48.162;11.510;2022-08-07T05:33:46;5.20;;;4.72;;
7693;SDS011;3889;48.162;11.510;2022-08-07T05:36:26;4.60;;;4.20;;
7693;SDS011;3889;48.162;11.510;2022-08-07T05:39:00;5.10;;;4.53;;
7693;SDS011;3889;48.162;11.510;2022-08-07T05:41:48;4.77;;;4.37;;
7693;SDS011;3889;48.162;11.510;2022-08-07T05:44:29;4.43;;;4.03;;
7693;SDS011;3889;48.162;11.510;2022-08-07T05:46:59;4.40;;;4.00;;
7693;SDS011;3889;48.162;11.510;2022-08-07T05:49:45;4.60;;;4.20;;
7693;SDS011;3889;48.162;11.510;2022-08-07T05:52:15;4.25;;;3.85;;
7693;SDS011;3889;48.162;11.510;2022-08-07T05:54:45;4.00;;;3.60;;
7693;SDS011;3889;48.162;11.510;2022-08-07T05:57:23;4.45;;;3.70;;
7693;SDS011;3889;48.162;11.510;2022-08-07T05:59:59;4.25;;;3.78;;
7693;SDS011;3889;48.162;11.510;2022-08-07T06:02:30;5.10;;;3.30;;
7693;SDS011;3889;48.162;11.510;2022-08-07T06:05:04;4.88;;;3.00;;
7693;SDS011;3889;48.162;11.510;2022-08-07T06:07:40;3.50;;;3.20;;
7693;SDS011;3889;48.162;11.510;2022-08-07T06:10:29;3.93;;;3.37;;
7693;SDS011;3889;48.162;11.510;2022-08-07T06:12:59;3.42;;;3.13;;
7693;SDS011;3889;48.162;11.510;2022-08-07T06:15:29;4.28;;;2.88;;
7693;SDS011;3889;48.162;11.510;2022-08-07T06:18:08;4.60;;;2.95;;
7693;SDS011;3889;48.162;11.510;2022-08-07T06:20:40;2.80;;;2.60;;
7693;SDS011;3889;48.162;11.510;2022-08-07T06:23:30;5.43;;;3.00;;
7693;SDS011;3889;48.162;11.510;2022-08-07T06:26:19;3.08;;;2.78;;
7693;SDS011;3889;48.162;11.510;2022-08-07T06:28:53;3.38;;;3.08;;
7693;SDS011;3889;48.162;11.510;2022-08-07T06:31:24;5.00;;;3.00;;
7693;SDS011;3889;48.162;11.510;2022-08-07T06:34:12;3.40;;;3.10;;
7693;SDS011;3889;48.162;11.510;2022-08-07T06:36:46;3.20;;;2.80;;
7693;SDS011;3889;48.162;11.510;2022-08-07T06:39:17;3.15;;;2.90;;
7693;SDS011;3889;48.162;11.510;2022-08-07T06:42:06;5.18;;;3.03;;
7693;SDS011;3889;48.162;11.510;2022-08-07T06:44:36;3.25;;;2.58;;
7693;SDS011;3889;48.162;11.510;2022-08-07T06:47:07;4.43;;;2.65;;
7693;SDS011;3889;48.162;11.510;2022-08-07T06:49:40;3.10;;;2.80;;
7693;SDS011;3889;48.162;11.510;2022-08-07T06:52:25;3.00;;;2.70;;
7693;SDS011;3889;48.162;11.510;2022-08-07T06:55:02;3.77;;;2.70;;
7693;SDS011;3889;48.162;11.510;2022-08-07T06:57:52;3.50;;;2.37;;
7693;SDS011;3889;48.162;11.510;2022-08-07T07:00:25;2.70;;;2.50;;
7693;SDS011;3889;48.162;11.510;2022-08-07T07:02:55;4.38;;;2.85;;
7693;SDS011;3889;48.162;11.510;2022-08-07T07:05:34;3.13;;;2.90;;
7693;SDS011;3889;48.162;11.510;2022-08-07T07:08:27;3.10;;;2.80;;
7693;SDS011;3889;48.162;11.510;2022-08-07T07:10:58;3.28;;;2.97;;
7693;SDS011;3889;48.162;11.510;2022-08-07T07:13:40;3.20;;;2.90;;
7693;SDS011;3889;48.162;11.510;2022-08-07T07:16:26;3.10;;;2.80;;
7693;SDS011;3889;48.162;11.510;2022-08-07T07:19:18;3.03;;;2.72;;
7693;SDS011;3889;48.162;11.510;2022-08-07T07:22:09;3.78;;;2.75;;
7693;SDS011;3889;48.162;11.510;2022-08-07T07:24:59;3.97;;;2.58;;
7693;SDS011;3889;48.162;11.510;2022-08-07T07:27:49;3.17;;;2.50;;
7693;SDS011;3889;48.162;11.510;2022-08-07T07:30:31;3.20;;;2.30;;
7693;SDS011;3889;48.162;11.510;2022-08-07T07:33:05;3.47;;;3.17;;
7693;SDS011;3889;48.162;11.510;2022-08-07T07:35:37;4.43;;;2.47;;
7693;SDS011;3889;48.162;11.510;2022-08-07T07:38:20;3.35;;;3.15;;
7693;SDS011;3889;48.162;11.510;2022-08-07T07:40:51;4.40;;;2.22;;
7693;SDS011;3889;48.162;11.510;2022-08-07T07:43:28;2.83;;;2.40;;
7693;SDS011;3889;48.162;11.510;2022-08-07T07:46:17;2.65;;;2.45;;
7693;SDS011;3889;48.162;11.510;2022-08-07T07:49:08;2.47;;;2.20;;
7693;SDS011;3889;48.162;11.510;2022-08-07T07:51:59;3.58;;;2.40;;
7693;SDS011;3889;48.162;11.510;2022-08-07T07:54:30;3.47;;;2.42;;
7693;SDS011;3889;48.162;11.510;2022-08-07T07:57:02;2.50;;;2.30;;
7693;SDS011;3889;48.162;11.510;2022-08-07T07:59:37;2.47;;;2.28;;
7693;SDS011;3889;48.162;11.510;2022-08-07T08:02:19;2.60;;;2.40;;
7693;SDS011;3889;48.162;11.510;2022-08-07T08:05:00;2.67;;;2.15;;
7693;SDS011;3889;48.162;11.510;2022-08-07T08:07:29;2.80;;;2.10;;
7693;SDS011;3889;48.162;11.510;2022-08-07T08:10:07;2.58;;;2.10;;
7693;SDS011;3889;48.162;11.510;2022-08-07T08:12:58;3.50;;;2.37;;
7693;SDS011;3889;48.162;11.510;2022-08-07T08:15:29;2.63;;;2.20;;
7693;SDS011;3889;48.162;11.510;2022-08-07T08:18:20;2.83;;;2.20;;
7693;SDS011;3889;48.162;11.510;2022-08-07T08:20:50;2.50;;;2.20;;
7693;SDS011;3889;48.162;11.510;2022-08-07T08:23:19;2.95;;;2.40;;
7693;SDS011;3889;48.162;11.510;2022-08-07T08:26:05;4.00;;;2.95;;
7693;SDS011;3889;48.162;11.510;2022-08-07T08:28:55;3.35;;;2.20;;
7693;SDS011;3889;48.162;11.510;2022-08-07T08:31:27;3.17;;;2.47;;
7693;SDS011;3889;48.162;11.510;2022-08-07T08:34:18;3.13;;;2.00;;
7693;SDS011;3889;48.162;11.510;2022-08-07T08:36:52;4.95;;;2.20;;
7693;SDS011;3889;48.162;11.510;2022-08-07T08:39:23;2.70;;;2.08;;
7693;SDS011;3889;48.162;11.510;2022-08-07T08:42:17;3.05;;;2.13;;
7693;SDS011;3889;48.162;11.510;2022-08-07T08:44:58;3.30;;;2.10;;
7693;SDS011;3889;48.162;11.510;2022-08-07T08:47:39;2.65;;;2.08;;
7693;SDS011;3889;48.162;11.510;2022-08-07T08:50:19;2.75;;;1.85;;
7693;SDS011;3889;48.162;11.510;2022-08-07T08:53:05;2.85;;;2.20;;
7693;SDS011;3889;48.162;11.510;2022-08-07T08:55:43;3.53;;;2.30;;
7693;SDS011;3889;48.162;11.510;2022-08-07T08:58:26;2.28;;;2.10;;
7693;SDS011;3889;48.162;11.510;2022-08-07T09:01:04;3.28;;;2.42;;
7693;SDS011;3889;48.162;11.510;2022-08-07T09:03:42;3.38;;;2.10;;
7693;SDS011;3889;48.162;11.510;2022-08-07T09:06:20;4.53;;;2.13;;
7693;SDS011;3889;48.162;11.510;2022-08-07T09:09:06;2.40;;;2.20;;
7693;SDS011;3889;48.162;11.510;2022-08-07T09:12:00;4.40;;;2.50;;
7693;SDS011;3889;48.162;11.510;2022-08-07T09:15:01;4.43;;;2.58;;
7693;SDS011;3889;48.162;11.510;2022-08-07T09:18:04;2.75;;;2.35;;
7693;SDS011;3889;48.162;11.510;2022-08-07T09:20:50;3.80;;;2.88;;
7693;SDS011;3889;48.162;11.510;2022-08-07T09:23:30;3.15;;;2.42;;
7693;SDS011;3889;48.162;11.510;2022-08-07T09:26:29;2.70;;;1.80;;
7693;SDS011;3889;48.162;11.510;2022-08-07T09:29:16;2.08;;;1.88;;
7693;SDS011;3889;48.162;11.510;2022-08-07T09:32:20;2.78;;;2.10;;
7693;SDS011;3889;48.162;11.510;2022-08-07T09:34:59;2.38;;;2.00;;
7693;SDS011;3889;48.162;11.510;2022-08-07T09:37:57;3.27;;;2.00;;
7693;SDS011;3889;48.162;11.510;2022-08-07T09:40:37;3.53;;;2.10;;
7693;SDS011;3889;48.162;11.510;2022-08-07T09:43:17;3.28;;;2.20;;
7693;SDS011;3889;48.162;11.510;2022-08-07T09:46:19;2.80;;;2.50;;
7693;SDS011;3889;48.162;11.510;2022-08-07T09:49:18;2.60;;;2.00;;
7693;SDS011;3889;48.162;11.510;2022-08-07T09:52:19;2.05;;;1.85;;
7693;SDS011;3889;48.162;11.510;2022-08-07T09:55:02;3.50;;;2.00;;
7693;SDS011;3889;48.162;11.510;2022-08-07T09:58:06;2.15;;;1.95;;
7693;SDS011;3889;48.162;11.510;2022-08-07T10:01:00;2.47;;;2.00;;
7693;SDS011;3889;48.162;11.510;2022-08-07T10:04:05;2.40;;;2.17;;
7693;SDS011;3889;48.162;11.510;2022-08-07T10:07:01;2.67;;;2.00;;
7693;SDS011;3889;48.162;11.510;2022-08-07T10:09:58;1.75;;;1.65;;
7693;SDS011;3889;48.162;11.510;2022-08-07T10:16:21;2.85;;;2.10;;
7693;SDS011;3889;48.162;11.510;2022-08-07T10:19:16;2.25;;;2.05;;
7693;SDS011;3889;48.162;11.510;2022-08-07T10:21:57;3.65;;;1.80;;
7693;SDS011;3889;48.162;11.510;2022-08-07T10:24:46;2.72;;;2.00;;
7693;SDS011;3889;48.162;11.510;2022-08-07T10:27:28;2.20;;;2.00;;
7693;SDS011;3889;48.162;11.510;2022-08-07T10:30:30;2.03;;;1.92;;
7693;SDS011;3889;48.162;11.510;2022-08-07T10:36:24;2.70;;;1.80;;
7693;SDS011;3889;48.162;11.510;2022-08-07T10:39:04;2.25;;;1.90;;
7693;SDS011;3889;48.162;11.510;2022-08-07T10:41:43;2.10;;;1.87;;
7693;SDS011;3889;48.162;11.510;2022-08-07T10:44:26;3.42;;;2.55;;
7693;SDS011;3889;48.162;11.510;2022-08-07T10:47:05;2.10;;;1.85;;
7693;SDS011;3889;48.162;11.510;2022-08-07T10:50:08;2.63;;;2.10;;
7693;SDS011;3889;48.162;11.510;2022-08-07T10:52:44;5.85;;;3.58;;
7693;SDS011;3889;48.162;11.510;2022-08-07T10:55:19;2.42;;;2.10;;
7693;SDS011;3889;48.162;11.510;2022-08-07T10:58:16;2.38;;;1.95;;
7693;SDS011;3889;48.162;11.510;2022-08-07T11:01:03;2.75;;;2.10;;
7693;SDS011;3889;48.162;11.510;2022-08-07T11:03:50;4.40;;;2.60;;
7693;SDS011;3889;48.162;11.510;2022-08-07T11:06:47;2.65;;;2.00;;
7693;SDS011;3889;48.162;11.510;2022-08-07T11:09:25;3.88;;;2.30;;
7693;SDS011;3889;48.162;11.510;2022-08-07T11:12:18;2.70;;;2.13;;
7693;SDS011;3889;48.162;11.510;2022-08-07T11:15:01;3.35;;;2.08;;
7693;SDS011;3889;48.162;11.510;2022-08-07T11:17:45;3.17;;;2.03;;
7693;SDS011;3889;48.162;11.510;2022-08-07T11:20:20;2.33;;;2.00;;
7693;SDS011;3889;48.162;11.510;2022-08-07T11:22:54;2.55;;;2.28;;
7693;SDS011;3889;48.162;11.510;2022-08-07T11:25:35;2.40;;;2.20;;
7693;SDS011;3889;48.162;11.510;2022-08-07T11:28:16;2.80;;;2.10;;
7693;SDS011;3889;48.162;11.510;2022-08-07T11:30:52;2.50;;;2.28;;
7693;SDS011;3889;48.162;11.510;2022-08-07T11:33:32;4.13;;;2.22;;
7693;SDS011;3889;48.162;11.510;2022-08-07T11:36:29;2.83;;;2.30;;
7693;SDS011;3889;48.162;11.510;2022-08-07T11:39:08;2.65;;;2.30;;
7693;SDS011;3889;48.162;11.510;2022-08-07T11:41:50;3.30;;;2.13;;
7693;SDS011;3889;48.162;11.510;2022-08-07T11:44:31;2.67;;;1.75;;
7693;SDS011;3889;48.162;11.510;2022-08-07T11:47:21;2.58;;;1.83;;
7693;SDS011;3889;48.162;11.510;2022-08-07T11:50:25;18.02;;;13.35;;
7693;SDS011;3889;48.162;11.510;2022-08-07T11:53:09;2.90;;;2.60;;
7693;SDS011;3889;48.162;11.510;2022-08-07T11:58:55;2.55;;;2.15;;
7693;SDS011;3889;48.162;11.510;2022-08-07T12:01:55;3.10;;;1.80;;
7693;SDS011;3889;48.162;11.510;2022-08-07T12:04:53;2.63;;;2.10;;
7693;SDS011;3889;48.162;11.510;2022-08-07T12:07:54;2.75;;;1.92;;
7693;SDS011;3889;48.162;11.510;2022-08-07T12:10:30;3.33;;;2.20;;
7693;SDS011;3889;48.162;11.510;2022-08-07T12:13:10;2.92;;;2.20;;
7693;SDS011;3889;48.162;11.510;2022-08-07T12:15:46;2.83;;;2.08;;
7693;SDS011;3889;48.162;11.510;2022-08-07T12:18:33;2.00;;;1.80;;
7693;SDS011;3889;48.162;11.510;2022-08-07T12:21:15;2.53;;;2.13;;
7693;SDS011;3889;48.162;11.510;2022-08-07T12:24:15;2.30;;;2.10;;
7693;SDS011;3889;48.162;11.510;2022-08-07T12:27:07;1.97;;;1.77;;
7693;SDS011;3889;48.162;11.510;2022-08-07T12:29:45;2.92;;;1.92;;
7693;SDS011;3889;48.162;11.510;2022-08-07T12:32:19;2.63;;;2.00;;
7693;SDS011;3889;48.162;11.510;2022-08-07T12:34:55;2.30;;;2.10;;
7693;SDS011;3889;48.162;11.510;2022-08-07T12:37:26;2.88;;;1.90;;
7693;SDS011;3889;48.162;11.510;2022-08-07T12:40:18;2.78;;;2.30;;
7693;SDS011;3889;48.162;11.510;2022-08-07T12:43:09;2.17;;;1.98;;
7693;SDS011;3889;48.162;11.510;2022-08-07T12:46:03;2.70;;;1.92;;
7693;SDS011;3889;48.162;11.510;2022-08-07T12:48:44;2.10;;;1.80;;
7693;SDS011;3889;48.162;11.510;2022-08-07T12:51:23;2.30;;;1.80;;
7693;SDS011;3889;48.162;11.510;2022-08-07T12:54:14;2.85;;;2.03;;
7693;SDS011;3889;48.162;11.510;2022-08-07T12:57:05;1.83;;;1.67;;
7693;SDS011;3889;48.162;11.510;2022-08-07T12:59:43;3.50;;;1.90;;
7693;SDS011;3889;48.162;11.510;2022-08-07T13:02:36;2.28;;;1.70;;
7693;SDS011;3889;48.162;11.510;2022-08-07T13:05:17;3.45;;;1.70;;
7693;SDS011;3889;48.162;11.510;2022-08-07T13:08:20;2.80;;;1.92;;
7693;SDS011;3889;48.162;11.510;2022-08-07T13:11:01;3.47;;;2.30;;
7693;SDS011;3889;48.162;11.510;2022-08-07T13:13:46;4.18;;;2.80;;
7693;SDS011;3889;48.162;11.510;2022-08-07T13:16:27;2.45;;;2.10;;
7693;SDS011;3889;48.162;11.510;2022-08-07T13:19:06;2.00;;;1.70;;
7693;SDS011;3889;48.162;11.510;2022-08-07T13:21:48;2.28;;;1.80;;
7693;SDS011;3889;48.162;11.510;2022-08-07T13:24:37;3.65;;;1.90;;
7693;SDS011;3889;48.162;11.510;2022-08-07T13:27:19;2.00;;;1.80;;
7693;SDS011;3889;48.162;11.510;2022-08-07T13:30:15;2.80;;;2.28;;
7693;SDS011;3889;48.162;11.510;2022-08-07T13:33:04;5.43;;;4.25;;
7693;SDS011;3889;48.162;11.510;2022-08-07T13:35:56;2.37;;;1.80;;
7693;SDS011;3889;48.162;11.510;2022-08-07T13:38:33;2.50;;;1.80;;
7693;SDS011;3889;48.162;11.510;2022-08-07T13:41:10;5.13;;;1.80;;
7693;SDS011;3889;48.162;11.510;2022-08-07T13:43:47;2.97;;;2.00;;
7693;SDS011;3889;48.162;11.510;2022-08-07T13:46:22;2.85;;;1.80;;
7693;SDS011;3889;48.162;11.510;2022-08-07T13:49:02;2.50;;;1.60;;
7693;SDS011;3889;48.162;11.510;2022-08-07T13:51:52;4.50;;;2.17;;
7693;SDS011;3889;48.162;11.510;2022-08-07T13:54:41;4.90;;;2.20;;
7693;SDS011;3889;48.162;11.510;2022-08-07T13:57:14;3.72;;;1.70;;
7693;SDS011;3889;48.162;11.510;2022-08-07T14:00:04;3.05;;;1.70;;
7693;SDS011;3889;48.162;11.510;2022-08-07T14:02:54;2.50;;;1.52;;
7693;SDS011;3889;48.162;11.510;2022-08-07T14:05:25;2.30;;;1.70;;
7693;SDS011;3889;48.162;11.510;2022-08-07T14:08:03;1.63;;;1.33;;
7693;SDS011;3889;48.162;11.510;2022-08-07T14:10:34;1.58;;;1.48;;
7693;SDS011;3889;48.162;11.510;2022-08-07T14:13:11;2.10;;;1.57;;
7693;SDS011;3889;48.162;11.510;2022-08-07T14:15:49;2.13;;;1.23;;
7693;SDS011;3889;48.162;11.510;2022-08-07T14:18:25;2.50;;;1.70;;
7693;SDS011;3889;48.162;11.510;2022-08-07T14:21:00;2.30;;;1.90;;
7693;SDS011;3889;48.162;11.510;2022-08-07T14:23:55;1.70;;;1.60;;
7693;SDS011;3889;48.162;11.510;2022-08-07T14:26:29;2.00;;;1.80;;
7693;SDS011;3889;48.162;11.510;2022-08-07T14:29:04;1.70;;;1.55;;
7693;SDS011;3889;48.162;11.510;2022-08-07T14:31:56;1.75;;;1.65;;
7693;SDS011;3889;48.162;11.510;2022-08-07T14:34:29;2.10;;;1.60;;
7693;SDS011;3889;48.162;11.510;2022-08-07T14:37:15;3.00;;;1.60;;
7693;SDS011;3889;48.162;11.510;2022-08-07T14:39:49;1.70;;;1.60;;
7693;SDS011;3889;48.162;11.510;2022-08-07T14:42:37;3.90;;;1.80;;
7693;SDS011;3889;48.162;11.510;2022-08-07T14:45:27;2.42;;;1.60;;
7693;SDS011;3889;48.162;11.510;2022-08-07T14:48:14;2.20;;;1.90;;
7693;SDS011;3889;48.162;11.510;2022-08-07T14:51:06;1.90;;;1.63;;
7693;SDS011;3889;48.162;11.510;2022-08-07T14:53:42;3.13;;;1.85;;
7693;SDS011;3889;48.162;11.510;2022-08-07T14:56:31;2.30;;;1.70;;
7693;SDS011;3889;48.162;11.510;2022-08-07T14:59:05;2.08;;;1.88;;
7693;SDS011;3889;48.162;11.510;2022-08-07T15:02:03;3.28;;;1.80;;
7693;SDS011;3889;48.162;11.510;2022-08-07T15:04:58;2.50;;;2.20;;
7693;SDS011;3889;48.162;11.510;2022-08-07T15:07:30;2.85;;;1.80;;
7693;SDS011;3889;48.162;11.510;2022-08-07T15:10:17;3.78;;;2.25;;
7693;SDS011;3889;48.162;11.510;2022-08-07T15:12:52;3.22;;;2.42;;
7693;SDS011;3889;48.162;11.510;2022-08-07T15:15:55;3.03;;;2.40;;
7693;SDS011;3889;48.162;11.510;2022-08-07T15:18:39;2.75;;;2.30;;
7693;SDS011;3889;48.162;11.510;2022-08-07T15:21:11;4.80;;;2.78;;
7693;SDS011;3889;48.162;11.510;2022-08-07T15:24:05;4.75;;;2.45;;
7693;SDS011;3889;48.162;11.510;2022-08-07T15:26:57;2.45;;;2.25;;
7693;SDS011;3889;48.162;11.510;2022-08-07T15:29:33;3.35;;;2.50;;
7693;SDS011;3889;48.162;11.510;2022-08-07T15:32:26;3.10;;;2.27;;
7693;SDS011;3889;48.162;11.510;2022-08-07T15:35:16;2.40;;;2.13;;
7693;SDS011;3889;48.162;11.510;2022-08-07T15:38:05;2.63;;;2.35;;
7693;SDS011;3889;48.162;11.510;2022-08-07T15:40:57;2.75;;;2.13;;
7693;SDS011;3889;48.162;11.510;2022-08-07T15:43:57;3.03;;;2.17;;
7693;SDS011;3889;48.162;11.510;2022-08-07T15:46:27;2.65;;;2.05;;
7693;SDS011;3889;48.162;11.510;2022-08-07T15:49:17;2.47;;;2.28;;
7693;SDS011;3889;48.162;11.510;2022-08-07T15:52:10;3.53;;;2.38;;
7693;SDS011;3889;48.162;11.510;2022-08-07T15:54:45;3.22;;;2.47;;
7693;SDS011;3889;48.162;11.510;2022-08-07T15:57:21;2.88;;;2.40;;
7693;SDS011;3889;48.162;11.510;2022-08-07T16:00:12;2.78;;;2.33;;
7693;SDS011;3889;48.162;11.510;2022-08-07T16:03:00;2.67;;;2.10;;
7693;SDS011;3889;48.162;11.510;2022-08-07T16:05:30;2.47;;;2.10;;
7693;SDS011;3889;48.162;11.510;2022-08-07T16:08:02;2.60;;;2.40;;
7693;SDS011;3889;48.162;11.510;2022-08-07T16:10:55;3.10;;;2.40;;
7693;SDS011;3889;48.162;11.510;2022-08-07T16:16:31;3.35;;;2.40;;
7693;SDS011;3889;48.162;11.510;2022-08-07T16:19:20;3.10;;;2.33;;
7693;SDS011;3889;48.162;11.510;2022-08-07T16:22:10;2.63;;;2.33;;
7693;SDS011;3889;48.162;11.510;2022-08-07T16:25:05;3.00;;;2.55;;
7693;SDS011;3889;48.162;11.510;2022-08-07T16:28:07;3.00;;;2.60;;
7693;SDS011;3889;48.162;11.510;2022-08-07T16:31:11;3.20;;;2.80;;
7693;SDS011;3889;48.162;11.510;2022-08-07T16:34:11;5.35;;;3.30;;
7693;SDS011;3889;48.162;11.510;2022-08-07T16:43:27;3.80;;;3.00;;